»·PEaware :: N321SF KSMX-KSBA

N321SF :: KSMX-KSBA

FLIGHT INFORMATION

Flight Status: Arrived
Operator: Privately registered:
United States
More flights under this callsign
Pilot: Robert Collins (14767)
Aircraft: PIPER PA-32 SARATOGA
(PA32)
More flights by this aircraft type
Origin: KSMX Santa Maria Pub/Capt Hancock
United States
Destination: KSBA Santa Barbara Mun
United States
More flights between these airports :: More routes between these airports
Route: BUELT4 BUELT GVO
File this flight plan on PilotEdge
Remarks: IFR WX for training purposes
Altitude:
(Current/Filed)
5,000ft
Speed:
(Current/Filed)
160kts
Departed: 15-Jun-17 06:01 PM
Arrived: 15-Jun-17 06:26 PM
Distance/Time
Traveled:
41nm/0:25
Distance/Time
To Go:
Arrived

Flight Plot

Page will automatically refresh every two minutes.

Flight plan parsing failed; only flown route is shown


Map Options




Map Legend


Flown Route
Filed Route
Departure Airport
Arrival Airport
Navaid (VOR, NDB)
Fix

Horizontal Profiles

Position Reports

Time Latitude Longitude Heading Altitude Ground
Speed
15-Jun-17 17:36 34.898849 -120.448088 316 262ft 0kts
15-Jun-17 17:37 34.898849 -120.448088 316 262ft 0kts
15-Jun-17 17:38 34.898849 -120.448088 316 262ft 0kts
15-Jun-17 17:39 34.898849 -120.448088 316 262ft 0kts
15-Jun-17 17:40 34.898849 -120.448088 316 262ft 0kts
15-Jun-17 17:41 34.898849 -120.448088 316 262ft 0kts
15-Jun-17 17:42 34.898849 -120.448088 316 262ft 0kts
15-Jun-17 17:43 34.898849 -120.448088 316 262ft 0kts
15-Jun-17 17:44 34.898849 -120.448088 316 262ft 0kts
15-Jun-17 17:45 34.898849 -120.448088 316 262ft 0kts
15-Jun-17 17:46 34.898849 -120.448088 316 262ft 0kts
15-Jun-17 17:47 34.898849 -120.448088 316 262ft 0kts
15-Jun-17 17:48 34.898849 -120.448088 316 262ft 0kts
15-Jun-17 17:49 34.898849 -120.448088 316 262ft 0kts
15-Jun-17 17:50 34.898849 -120.448088 316 262ft 0kts
15-Jun-17 17:51 34.898849 -120.448088 316 262ft 0kts
15-Jun-17 17:52 34.898849 -120.448088 316 262ft 0kts
15-Jun-17 17:53 34.898849 -120.448088 316 262ft 0kts
15-Jun-17 17:54 34.898849 -120.448088 316 262ft 0kts
15-Jun-17 17:55 34.898219 -120.448381 209 259ft 7kts
15-Jun-17 17:56 34.896563 -120.447857 141 259ft 12kts
15-Jun-17 17:57 34.894841 -120.445809 134 267ft 0kts
15-Jun-17 17:58 34.894792 -120.445757 139 267ft 0kts
15-Jun-17 17:59 34.894429 -120.445688 186 267ft 0kts
15-Jun-17 18:00 34.894429 -120.445688 186 267ft 0kts
15-Jun-17 18:01 34.894429 -120.445688 186 267ft 0kts
15-Jun-17 18:02 34.894420 -120.445689 189 267ft 0kts
15-Jun-17 18:03 34.893699 -120.446930 314 261ft 43kts
15-Jun-17 18:04 34.911323 -120.467460 313 1241ft 112kts
15-Jun-17 18:05 34.927989 -120.446063 132 2294ft 167kts
15-Jun-17 18:06 34.886610 -120.450067 199 3642ft 146kts
15-Jun-17 18:07 34.849534 -120.437521 147 4763ft 149kts
15-Jun-17 18:08 34.810925 -120.406648 146 4928ft 181kts
15-Jun-17 18:09 34.768628 -120.372042 145 4918ft 185kts
15-Jun-17 18:10 34.725709 -120.336913 145 4918ft 186kts
15-Jun-17 18:12 34.682773 -120.301812 145 4921ft 186kts
15-Jun-17 18:13 34.643955 -120.261409 132 4920ft 186kts
15-Jun-17 18:14 34.610434 -120.213423 130 4920ft 186kts
15-Jun-17 18:15 34.575512 -120.167750 131 4910ft 174kts
15-Jun-17 18:16 34.546806 -120.128509 131 5006ft 143kts
15-Jun-17 18:17 34.521339 -120.093679 131 5006ft 133kts
15-Jun-17 18:18 34.490259 -120.083615 204 4747ft 145kts
15-Jun-17 18:19 34.451565 -120.105688 205 4165ft 156kts
15-Jun-17 18:20 34.415815 -120.126049 204 3961ft 128kts
15-Jun-17 18:21 34.401512 -120.100786 54 3283ft 140kts
15-Jun-17 18:22 34.421700 -120.059005 77 2580ft 148kts
15-Jun-17 18:23 34.424028 -120.009026 88 2019ft 143kts
15-Jun-17 18:24 34.424897 -119.968235 87 1826ft 103kts
15-Jun-17 18:25 34.425608 -119.934566 87 1315ft 100kts
15-Jun-17 18:26 34.426438 -119.900510 87 796ft 101kts
15-Jun-17 18:27 34.427075 -119.869070 88 292ft 87kts
15-Jun-17 18:28 34.427695 -119.843395 87 13ft 41kts
15-Jun-17 18:29 34.428190 -119.841577 347 14ft 0kts
15-Jun-17 18:30 34.429728 -119.842052 349 14ft 7kts
15-Jun-17 18:31 34.431187 -119.838406 69 15ft 15kts

Navigation Log

Ident Type
Flight plan parsing failed, navigation log unavailable